Wrington, United Kingdom
Current Conditions -  °F | °C
As of 2:20 PM on Saturday 22 Nov 2014 (Local Time) from EGGD Reporting Station
Scattered Clouds Scattered Clouds  
Wind Chill: 54°   Ceiling: Unl
Heat Index: 54°   Visibility: 6mi
Dew Point: 50°   Wind: 5mph
Humidity: 88%   Direction: 250°WSW
Pressure: 29.88"   Gusts: NA
Location:  51.36°N, 2.76°W
Report Text: EGGD 221420Z 25004KT 9999 FEW019 SCT032 12/10 Q1012
Loading
Personal Weather Stations






























Interactive Weather Map New forecast layout! Learn more

10-Day Weather Forecast

Advertisements
Track Severe Weather on mobile